Terminal Aerodrome Forecast
Issued by NWS Rapid City, SD

Home | Current Version | Previous Version | Graphics & Text | Print | Product List | Glossary On
Versions: 1 2 3 4 5 6 7 8 9 10 11 12 13 14 15 16 17 18 19 20 21
000
FTUS43 KUNR 240520
TAFRAP
TAF
KRAP 240520Z 2406/2506 32010KT P6SM SCT050 BKN100
     FM242000 30008KT P6SM BKN070 PROB30 2421/2501 P6SM TS BKN050CB=

USA.gov is the U.S. government's official web portal to all federal, state and local government web resources and services.